Time;durP1;ratioP1;P1;durP2;ratioP2;P2;SDS_P1;SDS_P2;PMS_P1;PMS_P2;Temp;Humidity;BMP_temperature;BMP_pressure;BME280_temperature;BME280_humidity;BME280_pressure;Samples;Min_cycle;Max_cycle;Signal;HPM_P1;HPM_P2
2022/08/21 00:00:38;;;;;;;4.37;3.45;;;;;;;18.95;100.00;99789.75;5551142;32;34031;-71
2022/08/21 00:03:46;;;;;;;3.92;3.45;;;;;;;18.95;100.00;99785.19;5550904;32;34098;-70
2022/08/21 00:06:52;;;;;;;5.97;3.80;;;;;;;18.91;100.00;99788.59;5551317;32;34279;-72
2022/08/21 00:09:55;;;;;;;5.72;3.62;;;;;;;18.87;100.00;99785.56;5550955;32;35316;-71
2022/08/21 00:12:59;;;;;;;4.32;3.12;;;;;;;18.83;100.00;99792.44;5550274;32;33551;-70
2022/08/21 00:16:03;;;;;;;6.35;3.78;;;;;;;18.81;100.00;99786.50;5550930;32;34080;-71
2022/08/21 00:19:06;;;;;;;3.75;3.33;;;;;;;18.72;100.00;99768.28;5551274;32;34556;-71
2022/08/21 00:22:09;;;;;;;4.40;3.70;;;;;;;18.70;100.00;99767.69;5550843;32;34765;-71
2022/08/21 00:25:14;;;;;;;4.53;3.80;;;;;;;18.63;100.00;99767.84;5551219;32;34659;-69
2022/08/21 00:28:17;;;;;;;4.72;3.87;;;;;;;18.67;100.00;99777.06;5550326;32;34490;-70
2022/08/21 00:31:20;;;;;;;6.40;4.37;;;;;;;18.59;100.00;99769.34;5550835;32;34141;-70
2022/08/21 00:34:23;;;;;;;4.28;3.72;;;;;;;18.57;100.00;99769.59;5549869;32;35261;-70
2022/08/21 00:37:25;;;;;;;4.50;4.10;;;;;;;18.60;100.00;99763.75;5550711;32;34459;-71
2022/08/21 00:40:45;;;;;;;5.45;4.03;;;;;;;18.55;100.00;99763.63;5549942;32;33120;-71
2022/08/21 00:43:47;;;;;;;4.83;4.33;;;;;;;18.56;100.00;99777.88;5550801;32;33901;-69
2022/08/21 00:46:50;;;;;;;5.82;4.43;;;;;;;18.60;100.00;99774.47;5550732;32;33812;-71
2022/08/21 00:49:53;;;;;;;5.57;4.50;;;;;;;18.53;100.00;99771.13;5550673;32;35222;-69
2022/08/21 00:52:56;;;;;;;6.50;5.00;;;;;;;18.50;100.00;99776.91;5550612;32;34031;-71
2022/08/21 00:56:02;;;;;;;6.97;5.22;;;;;;;18.46;100.00;99777.59;5550607;32;34511;-71
2022/08/21 00:59:06;;;;;;;7.03;4.93;;;;;;;18.41;100.00;99775.62;5550411;32;34262;-70
2022/08/21 01:02:09;;;;;;;6.80;5.03;;;;;;;18.41;100.00;99775.62;5550411;32;34658;-71
2022/08/21 01:05:12;;;;;;;7.28;5.12;;;;;;;18.41;100.00;99775.62;5550530;32;34563;-69
2022/08/21 01:08:16;;;;;;;6.15;5.55;;;;;;;18.38;100.00;99768.03;5550416;32;34018;-69
2022/08/21 01:11:20;;;;;;;7.32;5.18;;;;;;;18.46;100.00;99774.91;5549580;32;33471;-72
2022/08/21 01:14:22;;;;;;;6.20;5.57;;;;;;;18.42;100.00;99774.56;5549715;32;33920;-71
2022/08/21 01:17:26;;;;;;;7.55;5.97;;;;;;;18.47;100.00;99777.38;5549293;32;32981;-72
2022/08/21 01:20:29;;;;;;;6.68;5.45;;;;;;;18.41;100.00;99772.13;5550409;32;34301;-70
2022/08/21 01:23:42;;;;;;;6.20;5.60;;;;;;;18.45;100.00;99771.41;5550284;32;34671;-71
2022/08/21 01:26:45;;;;;;;8.10;6.07;;;;;;;18.53;100.00;99775.62;5550564;32;34669;-70
2022/08/21 01:29:56;;;;;;;6.78;6.07;;;;;;;18.42;100.00;99765.69;5550162;32;34205;-71
2022/08/21 01:32:59;;;;;;;6.93;5.60;;;;;;;18.43;100.00;99767.34;5550234;32;34700;-68
2022/08/21 01:36:02;;;;;;;8.85;6.60;;;;;;;18.42;100.00;99768.38;5550103;32;34631;-69
2022/08/21 01:39:06;;;;;;;7.28;6.45;;;;;;;18.39;100.00;99763.50;5550176;32;34569;-70
2022/08/21 01:42:09;;;;;;;8.70;7.07;;;;;;;18.43;100.00;99759.28;5549896;32;34335;-70
2022/08/21 01:45:13;;;;;;;8.95;7.22;;;;;;;18.36;100.00;99761.25;5550157;32;33941;-70
2022/08/21 01:48:16;;;;;;;11.20;7.20;;;;;;;18.39;100.00;99755.44;5549201;32;33287;-69
2022/08/21 01:51:19;;;;;;;9.35;7.03;;;;;;;18.38;100.00;99762.69;5550228;32;33896;-69
2022/08/21 01:54:22;;;;;;;8.32;6.78;;;;;;;18.38;100.00;99765.34;5556285;32;33852;-70
2022/08/21 01:57:25;;;;;;;8.63;6.65;;;;;;;18.48;100.00;99754.84;5556085;32;34058;-70
2022/08/21 02:00:28;;;;;;;7.65;6.82;;;;;;;18.40;100.00;99760.56;5556001;32;34197;-70
2022/08/21 02:03:31;;;;;;;9.00;6.82;;;;;;;18.47;100.00;99765.81;5556015;32;33916;-71
2022/08/21 02:06:38;;;;;;;9.65;6.82;;;;;;;18.35;100.00;99763.13;5556094;32;34568;-69
2022/08/21 02:09:42;;;;;;;8.88;6.45;;;;;;;18.32;100.00;99757.41;5554904;32;32516;-71
2022/08/21 02:12:45;;;;;;;8.15;6.40;;;;;;;18.35;100.00;99763.13;5555752;32;34008;-71
2022/08/21 02:15:48;;;;;;;7.60;6.47;;;;;;;18.40;100.00;99767.78;5555753;32;33904;-71
2022/08/21 02:18:51;;;;;;;10.43;6.43;;;;;;;18.31;100.00;99756.59;5555730;32;34361;-71
2022/08/21 02:21:55;;;;;;;16.42;7.35;;;;;;;18.27;100.00;99755.41;5554894;32;34700;-70
2022/08/21 02:24:57;;;;;;;10.88;7.03;;;;;;;18.32;100.00;99762.78;5555664;32;33864;-71
2022/08/21 02:28:04;;;;;;;8.38;7.03;;;;;;;18.32;100.00;99755.53;5555609;32;34384;-71
2022/08/21 02:31:08;;;;;;;11.48;7.18;;;;;;;18.33;100.00;99756.38;5547404;32;233157;-70
2022/08/21 02:34:10;;;;;;;10.07;7.32;;;;;;;18.23;100.00;99747.03;5555369;32;34301;-69
2022/08/21 02:37:13;;;;;;;9.52;7.20;;;;;;;18.25;100.00;99755.66;5555429;32;33957;-70
2022/08/21 02:40:18;;;;;;;10.93;7.57;;;;;;;18.21;100.00;99753.66;5555236;32;34690;-69
2022/08/21 02:43:22;;;;;;;11.32;8.05;;;;;;;18.20;100.00;99752.03;5555241;32;34429;-72
2022/08/21 02:46:25;;;;;;;12.32;8.15;;;;;;;18.13;100.00;99752.16;5554772;32;33949;-67
2022/08/21 02:49:28;;;;;;;10.63;7.80;;;;;;;18.12;100.00;99739.75;5555214;32;33942;-70
2022/08/21 02:52:30;;;;;;;11.30;7.32;;;;;;;18.11;100.00;99732.75;5555101;32;34625;-70
2022/08/21 02:55:35;;;;;;;10.52;7.85;;;;;;;18.11;100.00;99740.00;5555382;32;35273;-71
2022/08/21 02:58:45;;;;;;;10.15;7.65;;;;;;;18.08;100.00;99748.53;5555013;32;33945;-70
2022/08/21 03:01:48;;;;;;;10.30;8.20;;;;;;;18.05;100.00;99739.06;5555235;32;34276;-70
2022/08/21 03:04:51;;;;;;;12.52;8.45;;;;;;;18.06;100.00;99737.19;5551311;32;34132;-68
2022/08/21 03:07:54;;;;;;;12.45;8.23;;;;;;;18.05;100.00;99738.25;5550811;32;33172;-70
2022/08/21 03:11:00;;;;;;;12.88;8.43;;;;;;;18.11;100.00;99751.56;5551154;32;34520;-71
2022/08/21 03:14:05;;;;;;;12.95;8.25;;;;;;;18.12;100.00;99744.31;5550642;32;34296;-70
2022/08/21 03:17:07;;;;;;;11.48;8.18;;;;;;;18.11;100.00;99734.63;5551458;32;33937;-70
2022/08/21 03:20:12;;;;;;;15.50;8.93;;;;;;;18.10;100.00;99738.38;5551374;32;34641;-69
2022/08/21 03:23:17;;;;;;;12.25;8.73;;;;;;;18.07;100.00;99746.88;5551237;32;34557;-68
2022/08/21 03:26:20;;;;;;;11.40;8.30;;;;;;;18.10;100.00;99749.94;5551461;32;35232;-71
2022/08/21 03:29:24;;;;;;;11.95;8.15;;;;;;;18.12;100.00;99753.19;5551225;32;35205;-71
2022/08/21 03:32:27;;;;;;;11.23;8.43;;;;;;;18.09;100.00;99744.78;5551093;32;34045;-71
2022/08/21 03:35:30;;;;;;;12.57;8.15;;;;;;;18.10;100.00;99749.94;5551122;32;34588;-70
2022/08/21 03:38:34;;;;;;;12.32;8.45;;;;;;;18.08;100.00;99748.53;5550533;32;33816;-70
2022/08/21 03:41:37;;;;;;;12.48;8.65;;;;;;;18.09;100.00;99750.97;5550564;32;32407;-71
2022/08/21 03:44:40;;;;;;;12.32;9.02;;;;;;;18.09;100.00;99747.47;5551121;32;34655;-68
2022/08/21 03:48:11;;;;;;;12.18;8.88;;;;;;;18.12;100.00;99744.31;5550983;32;34743;-70
2022/08/21 03:51:15;;;;;;;12.88;9.50;;;;;;;18.14;100.00;99745.75;5549502;32;33783;-69
2022/08/21 03:54:18;;;;;;;13.18;8.48;;;;;;;18.15;100.00;99741.97;5551296;32;34551;-71
2022/08/21 03:57:21;;;;;;;12.05;8.75;;;;;;;18.17;100.00;99749.81;5551383;32;35142;-70
2022/08/21 04:00:24;;;;;;;11.88;9.50;;;;;;;18.21;100.00;99745.59;5551110;32;35182;-69
2022/08/21 04:03:29;;;;;;;11.43;8.68;;;;;;;18.14;100.00;99755.66;5550712;32;34815;-70
2022/08/21 04:06:32;;;;;;;12.00;8.70;;;;;;;18.27;100.00;99758.09;5550912;32;34315;-71
2022/08/21 04:09:39;;;;;;;12.90;9.15;;;;;;;18.18;100.00;99760.31;5550846;32;34695;-71
2022/08/21 04:12:42;;;;;;;14.38;9.30;;;;;;;18.19;100.00;99767.34;5536825;32;32418;-70
2022/08/21 04:15:45;;;;;;;14.10;9.45;;;;;;;18.21;100.00;99764.41;5550587;32;33865;-70
2022/08/21 04:18:47;;;;;;;12.23;8.90;;;;;;;18.20;100.00;99770.84;5550899;32;34036;-71
2022/08/21 04:21:50;;;;;;;12.57;9.32;;;;;;;18.30;100.00;99772.94;5550844;32;34074;-70
2022/08/21 04:24:54;;;;;;;12.23;9.15;;;;;;;18.22;100.00;99772.22;5550807;32;34007;-72
2022/08/21 04:27:57;;;;;;;12.45;9.68;;;;;;;18.27;100.00;99782.28;5550816;32;34354;-71
2022/08/21 04:30:59;;;;;;;13.40;8.90;;;;;;;18.29;100.00;99779.37;5550697;32;34721;-71
2022/08/21 04:34:04;;;;;;;14.55;9.55;;;;;;;18.40;100.00;99781.22;5550779;32;34913;-69
2022/08/21 04:37:07;;;;;;;12.73;8.82;;;;;;;18.40;100.00;99778.53;5549725;32;34284;-69
2022/08/21 04:40:12;;;;;;;12.43;8.27;;;;;;;18.39;100.00;99776.91;5550030;32;33561;-71
2022/08/21 04:43:14;;;;;;;13.18;9.40;;;;;;;18.40;100.00;99786.59;5550585;32;34749;-70
2022/08/21 04:46:18;;;;;;;12.07;9.35;;;;;;;18.38;100.00;99776.09;5550503;32;33608;-70
2022/08/21 04:49:21;;;;;;;12.02;9.07;;;;;;;18.45;100.00;99792.09;5549593;32;32890;-71
2022/08/21 04:52:24;;;;;;;12.98;9.13;;;;;;;18.41;100.00;99790.91;5550555;32;35297;-71
2022/08/21 04:55:28;;;;;;;12.18;8.68;;;;;;;18.55;100.00;99792.34;5550816;32;34034;-71
2022/08/21 04:58:33;;;;;;;10.57;8.32;;;;;;;18.55;100.00;99789.66;5550488;32;34571;-71
2022/08/21 05:01:37;;;;;;;10.40;8.13;;;;;;;18.69;100.00;99796.44;5550053;32;33921;-71
2022/08/21 05:04:45;;;;;;;10.18;7.78;;;;;;;18.71;100.00;99809.66;5550187;32;34954;-71
2022/08/21 05:07:49;;;;;;;11.25;6.95;;;;;;;18.59;100.00;99805.09;5550171;32;33999;-71
2022/08/21 05:10:52;;;;;;;8.45;6.82;;;;;;;18.69;100.00;99807.19;5550346;32;34670;-71
2022/08/21 05:14:01;;;;;;;8.83;6.77;;;;;;;18.72;100.00;99800.53;5550387;32;33987;-71
2022/08/21 05:17:04;;;;;;;7.57;6.43;;;;;;;18.61;100.00;99805.69;5550703;32;34585;-69
2022/08/21 05:20:10;;;;;;;7.37;6.22;;;;;;;18.69;100.00;99807.19;5549481;32;33963;-70
2022/08/21 05:23:14;;;;;;;8.38;5.70;;;;;;;18.54;100.00;99802.28;5550036;32;35241;-69
2022/08/21 05:26:16;;;;;;;6.80;5.85;;;;;;;18.68;100.00;99808.25;5548377;32;32283;-70
2022/08/21 05:29:20;;;;;;;9.52;5.82;;;;;;;18.61;100.00;99797.63;5549619;32;34105;-69
2022/08/21 05:32:24;;;;;;;12.98;5.97;;;;;;;18.72;100.00;99801.34;5549921;32;34579;-72
2022/08/21 05:35:30;;;;;;;6.25;5.65;;;;;;;18.65;100.00;99792.59;5549699;32;34087;-70
2022/08/21 05:38:32;;;;;;;6.03;5.40;;;;;;;18.72;100.00;99804.03;5536468;32;33766;-70
2022/08/21 05:41:35;;;;;;;7.20;5.65;;;;;;;18.66;100.00;99804.97;5549956;32;34028;-69
2022/08/21 05:44:37;;;;;;;7.55;5.78;;;;;;;18.60;100.00;99806.72;5549723;32;34663;-70
2022/08/21 05:47:40;;;;;;;8.20;5.80;;;;;;;18.69;100.00;99809.87;5549592;32;34150;-71
2022/08/21 05:50:44;;;;;;;6.10;5.15;;;;;;;18.70;100.00;99798.06;5549994;32;34774;-70
2022/08/21 05:53:47;;;;;;;8.60;5.20;;;;;;;18.86;100.00;99799.22;5549646;32;33914;-71
2022/08/21 05:56:51;;;;;;;8.35;5.60;;;;;;;18.88;100.00;99800.63;5548990;32;32733;-71
2022/08/21 05:59:55;;;;;;;7.12;4.97;;;;;;;18.90;100.00;99806.59;5549564;32;33964;-71
2022/08/21 06:02:58;;;;;;;6.55;4.97;;;;;;;18.82;100.00;99803.44;5548599;32;32388;-70
2022/08/21 06:06:02;;;;;;;7.43;5.00;;;;;;;18.94;100.00;99810.44;5549239;32;34147;-70
2022/08/21 06:09:05;;;;;;;6.60;5.10;;;;;;;18.94;100.00;99804.25;5549528;32;33864;-71
2022/08/21 06:12:11;;;;;;;6.95;4.97;;;;;;;18.92;100.00;99811.75;5549487;32;34668;-69
2022/08/21 06:15:13;;;;;;;9.23;4.97;;;;;;;18.89;100.00;99810.31;5549278;32;34628;-71
2022/08/21 06:18:17;;;;;;;6.43;4.97;;;;;;;19.02;100.00;99807.41;5549341;32;35316;-72
2022/08/21 06:21:19;;;;;;;6.45;5.05;;;;;;;19.12;100.00;99808.69;5548989;32;34581;-71
2022/08/21 06:24:22;;;;;;;6.75;5.03;;;;;;;19.10;100.00;99806.22;5548388;32;32470;-69
2022/08/21 06:27:25;;;;;;;8.93;5.32;;;;;;;18.93;100.00;99810.66;5549028;32;34194;-71
2022/08/21 06:30:28;;;;;;;7.25;4.97;;;;;;;18.92;100.00;99814.44;5549097;32;34659;-71
2022/08/21 06:33:31;;;;;;;5.95;5.10;;;;;;;19.06;100.00;99815.81;5549151;32;33831;-72
2022/08/21 06:36:34;;;;;;;6.03;5.37;;;;;;;19.09;100.00;99818.00;5548714;32;34867;-70
2022/08/21 06:39:37;;;;;;;6.60;4.95;;;;;;;19.15;100.00;99816.25;5551129;32;33945;-71
2022/08/21 06:42:46;;;;;;;9.85;5.20;;;;;;;19.12;100.00;99820.25;5551709;32;34247;-71
2022/08/21 06:45:50;;;;;;;7.80;5.25;;;;;;;19.26;100.00;99828.88;5551554;32;34035;-71
2022/08/21 06:48:54;;;;;;;5.87;4.95;;;;;;;19.47;100.00;99828.22;5551519;32;34473;-70
2022/08/21 06:51:57;;;;;;;7.37;5.03;;;;;;;19.48;100.00;99832.56;5551196;32;33904;-71
2022/08/21 06:55:00;;;;;;;5.90;4.90;;;;;;;19.65;100.00;99830.75;5551476;32;34017;-70
2022/08/21 06:58:03;;;;;;;8.20;4.43;;;;;;;19.80;100.00;99833.72;5550741;32;33474;-71
2022/08/21 07:01:07;;;;;;;6.90;4.75;;;;;;;19.80;100.00;99836.41;5550507;32;32461;-71
2022/08/21 07:04:10;;;;;;;5.75;4.70;;;;;;;19.65;100.00;99827.25;5550087;32;33432;-71
2022/08/21 07:07:12;;;;;;;8.95;4.90;;;;;;;19.61;100.00;99826.91;5551286;32;34356;-69
2022/08/21 07:10:15;;;;;;;16.65;4.62;;;;;;;19.65;100.00;99820.00;5551400;32;34042;-70
2022/08/21 07:13:24;;;;;;;6.28;4.95;;;;;;;19.81;100.00;99818.37;5551258;32;34028;-70
2022/08/21 07:16:27;;;;;;;5.80;4.72;;;;;;;19.76;100.00;99824.50;5550424;32;32556;-70
2022/08/21 07:19:30;;;;;;;5.50;4.35;;;;;;;20.10;100.00;99817.28;5550728;32;32482;-70
2022/08/21 07:22:35;;;;;;;7.10;4.55;;;;;;;20.00;100.00;99819.00;5551285;32;33993;-71
2022/08/21 07:25:38;;;;;;;8.30;4.32;;;;;;;20.30;100.00;99825.75;5551091;32;33978;-70
2022/08/21 07:28:41;;;;;;;7.65;4.53;;;;;;;20.34;100.00;99820.69;5551184;32;33854;-71
2022/08/21 07:31:44;;;;;;;7.55;4.55;;;;;;;20.37;100.00;99825.59;5550577;32;32625;-70
2022/08/21 07:34:47;;;;;;;6.18;4.37;;;;;;;20.52;100.00;99831.25;5550196;32;33959;-71
2022/08/21 07:37:50;;;;;;;5.25;4.28;;;;;;;20.50;100.00;99832.53;5550831;32;34828;-71
2022/08/21 07:40:55;;;;;;;7.43;4.50;;;;;;;20.57;100.00;99825.94;5551332;32;34305;-70
2022/08/21 07:43:59;;;;;;;9.77;4.30;;;;;;;20.49;100.00;99831.72;5550950;32;33995;-71
2022/08/21 07:47:01;;;;;;;7.62;4.65;;;;;;;20.36;100.00;99827.47;5551003;32;33972;-70
2022/08/21 07:50:06;;;;;;;7.07;4.57;;;;;;;20.71;100.00;99816.44;5549664;32;32777;-72
2022/08/21 07:53:08;;;;;;;6.25;4.00;;;;;;;20.65;100.00;99813.91;5550902;32;33308;-70
2022/08/21 07:56:11;;;;;;;5.97;3.80;;;;;;;21.04;99.56;99814.72;5551075;32;34931;-69
2022/08/21 07:59:14;;;;;;;8.18;4.07;;;;;;;22.21;92.33;99815.00;5550898;32;35323;-69
2022/08/21 08:02:25;;;;;;;4.87;3.40;;;;;;;22.58;88.91;99804.19;5551071;32;34645;-69
2022/08/21 08:05:30;;;;;;;5.60;2.97;;;;;;;24.07;81.48;99817.00;5549935;32;32784;-70
2022/08/21 08:08:33;;;;;;;4.97;3.47;;;;;;;24.97;77.79;99809.13;5550983;32;34248;-71
2022/08/21 08:11:38;;;;;;;4.07;3.20;;;;;;;25.23;73.60;99810.63;5550165;32;34631;-71
2022/08/21 08:14:40;;;;;;;6.32;3.20;;;;;;;24.15;77.67;99811.06;5550557;32;33497;-71
2022/08/21 08:17:43;;;;;;;4.72;3.20;;;;;;;24.06;77.76;99798.31;5549607;32;33319;-68
2022/08/21 08:20:46;;;;;;;5.12;3.62;;;;;;;23.26;81.80;99792.41;5550492;32;34073;-69
2022/08/21 08:23:49;;;;;;;6.90;3.50;;;;;;;23.12;83.55;99791.28;5550239;32;33890;-69
2022/08/21 08:26:53;;;;;;;4.32;3.28;;;;;;;23.24;82.92;99785.63;5550498;32;34735;-69
2022/08/21 08:29:57;;;;;;;3.78;3.08;;;;;;;23.09;83.73;99786.38;5550743;32;34076;-70
2022/08/21 08:33:00;;;;;;;5.20;3.75;;;;;;;22.67;86.78;99780.16;5550454;32;34354;-70
2022/08/21 08:36:03;;;;;;;7.75;3.85;;;;;;;22.74;86.38;99788.91;5550126;32;33926;-70
2022/08/21 08:39:09;;;;;;;5.30;3.58;;;;;;;23.05;85.23;99784.44;5550174;32;34755;-70
2022/08/21 08:42:27;;;;;;;5.60;3.70;;;;;;;23.31;83.45;99791.59;5549254;32;32799;-70
2022/08/21 08:45:39;;;;;;;6.28;3.55;;;;;;;23.02;85.04;99785.00;5550030;32;33948;-70
2022/08/21 08:48:56;;;;;;;7.70;3.67;;;;;;;23.33;83.98;99784.06;5549378;32;32774;-70
2022/08/21 08:52:48;;;;;;;7.30;4.05;;;;;;;23.25;83.37;99781.84;5549687;32;33218;-69
2022/08/21 08:55:53;;;;;;;5.22;3.25;;;;;;;22.86;86.04;99776.78;5547908;32;34162;-71
2022/08/21 08:59:01;;;;;;;3.80;3.40;;;;;;;23.11;84.65;99786.09;5549084;32;32717;-69
2022/08/21 09:02:07;;;;;;;5.93;3.28;;;;;;;23.25;84.00;99776.41;5548683;32;34040;-71
2022/08/21 09:05:21;;;;;;;5.95;3.53;;;;;;;23.85;81.36;99780.41;5549832;32;33926;-69
2022/08/21 09:08:57;;;;;;;5.15;3.62;;;;;;;24.42;79.69;99788.28;5549144;32;34656;-70
2022/08/21 09:12:16;;;;;;;5.82;3.60;;;;;;;24.49;76.54;99784.22;5544276;32;34212;-70
2022/08/21 09:15:37;;;;;;;5.50;3.20;;;;;;;24.29;78.57;99789.66;5549897;32;33846;-69
2022/08/21 09:19:02;;;;;;;5.65;4.15;;;;;;;24.27;79.50;99791.00;5536339;32;33224;-70
2022/08/21 09:22:46;;;;;;;5.87;3.90;;;;;;;23.99;80.17;99789.63;5548718;32;32697;-68
2022/08/21 09:26:01;;;;;;;6.60;3.80;;;;;;;24.42;77.09;99782.88;5549091;32;33937;-71
2022/08/21 09:29:06;;;;;;;4.80;4.00;;;;;;;24.32;77.17;99789.13;5549418;32;32790;-71
2022/08/21 09:32:22;;;;;;;6.40;3.30;;;;;;;23.75;80.74;99784.72;5549060;32;32614;-69
2022/08/21 09:35:54;;;;;;;7.90;3.70;;;;;;;25.10;75.51;99782.19;5549447;32;35264;-71
2022/08/21 09:38:57;;;;;;;10.48;3.90;;;;;;;24.32;77.81;99780.97;5549868;32;33951;-71
2022/08/21 09:42:03;;;;;;;5.93;3.45;;;;;;;25.66;71.92;99778.44;5523862;32;32354;-71
2022/08/21 09:45:18;;;;;;;7.28;3.55;;;;;;;25.55;72.68;99774.94;5548830;32;32748;-69
2022/08/21 09:48:24;;;;;;;4.70;3.90;;;;;;;24.73;75.48;99779.03;5548778;32;33965;-71
2022/08/21 09:51:36;;;;;;;5.93;3.60;;;;;;;24.27;78.69;99775.56;5548957;32;33310;-70
2022/08/21 09:54:40;;;;;;;7.28;4.15;;;;;;;25.34;74.29;99773.41;5549343;32;34402;-69
2022/08/21 09:57:46;;;;;;;5.95;3.58;;;;;;;24.88;73.87;99778.22;5549394;32;34119;-71
2022/08/21 10:00:58;;;;;;;5.82;4.00;;;;;;;25.45;72.50;99778.50;5549204;32;34610;-71
2022/08/21 10:04:08;;;;;;;4.35;3.50;;;;;;;25.50;72.58;99778.47;5549081;32;34024;-68
2022/08/21 10:07:14;;;;;;;4.78;4.00;;;;;;;24.66;75.30;99775.78;5549237;32;34263;-70
2022/08/21 10:10:27;;;;;;;8.77;4.22;;;;;;;24.86;75.51;99766.78;5549053;32;33967;-69
2022/08/21 10:13:40;;;;;;;6.00;3.90;;;;;;;25.26;74.02;99765.84;5550267;32;34714;-71
2022/08/21 10:17:08;;;;;;;5.90;3.75;;;;;;;25.46;72.75;99771.97;5551291;32;34139;-68
2022/08/21 10:20:17;;;;;;;8.13;3.83;;;;;;;25.12;73.42;99777.28;5551767;32;33965;-70
2022/08/21 10:23:45;;;;;;;5.80;4.12;;;;;;;25.05;75.25;99778.69;5550792;32;34035;-71
2022/08/21 10:27:16;;;;;;;7.43;3.53;;;;;;;25.77;71.53;99769.91;5551649;32;33901;-71
2022/08/21 10:30:36;;;;;;;10.80;3.45;;;;;;;26.32;68.56;99776.03;5551727;32;34020;-71
2022/08/21 10:34:07;;;;;;;4.28;3.40;;;;;;;25.88;71.11;99770.66;5551538;32;34646;-70
2022/08/21 10:37:33;;;;;;;6.30;3.30;;;;;;;26.78;67.43;99774.47;5551633;32;34079;-71
2022/08/21 10:40:44;;;;;;;4.97;3.50;;;;;;;26.19;69.37;99769.31;5550943;32;33475;-70
2022/08/21 10:44:28;;;;;;;4.10;3.30;;;;;;;27.65;63.85;99769.59;5551616;32;34115;-67
2022/08/21 10:47:37;;;;;;;5.47;3.20;;;;;;;27.42;63.37;99780.53;5550647;32;34265;-70
2022/08/21 10:51:17;;;;;;;5.57;3.30;;;;;;;28.51;59.94;99779.13;5550902;32;35034;-71
2022/08/21 10:54:39;;;;;;;6.50;3.45;;;;;;;26.86;64.91;99772.22;5538944;32;33444;-70
2022/08/21 10:57:57;;;;;;;5.20;2.90;;;;;;;27.17;63.86;99768.06;5551602;32;33900;-70
2022/08/21 11:01:11;;;;;;;5.37;3.22;;;;;;;26.63;66.07;99754.78;5550870;32;32627;-70
2022/08/21 11:04:49;;;;;;;4.90;3.65;;;;;;;26.11;67.67;99767.22;5551425;32;34649;-70
2022/08/21 11:07:57;;;;;;;4.72;2.90;;;;;;;25.35;71.23;99759.56;5551397;32;33920;-70
2022/08/21 11:11:41;;;;;;;4.97;3.30;;;;;;;25.79;70.23;99764.19;5551350;32;34475;-71
2022/08/21 11:15:11;;;;;;;5.50;3.47;;;;;;;25.39;72.26;99760.59;5551437;32;33972;-69
2022/08/21 11:18:36;;;;;;;5.12;3.45;;;;;;;24.87;74.01;99754.88;5550691;32;32813;-69
2022/08/21 11:21:42;;;;;;;4.32;3.37;;;;;;;25.52;70.69;99753.72;5550204;32;33643;-70
2022/08/21 11:25:16;;;;;;;6.68;3.40;;;;;;;25.99;69.25;99752.38;5549692;32;32755;-70
2022/08/21 11:28:41;;;;;;;4.43;3.03;;;;;;;25.18;71.81;99750.94;5550225;32;34292;-68
2022/08/21 11:31:57;;;;;;;5.68;2.97;;;;;;;25.41;71.74;99750.28;5550477;32;32884;-70
2022/08/21 11:35:18;;;;;;;5.12;3.10;;;;;;;25.28;72.02;99748.16;5550410;32;33843;-71
2022/08/21 11:38:35;;;;;;;7.03;3.50;;;;;;;25.00;72.94;99748.84;5551057;32;34697;-69
2022/08/21 11:41:46;;;;;;;4.18;3.08;;;;;;;24.64;74.94;99745.41;5551334;32;35291;-70
2022/08/21 11:45:10;;;;;;;4.90;3.37;;;;;;;24.82;75.44;99744.81;5551089;32;33909;-70
2022/08/21 11:48:22;;;;;;;4.10;3.53;;;;;;;24.74;75.50;99750.00;5550757;32;34008;-68
2022/08/21 11:51:33;;;;;;;6.45;3.28;;;;;;;24.13;77.80;99744.63;5550188;32;33359;-70
2022/08/21 11:55:03;;;;;;;5.57;3.80;;;;;;;24.47;77.47;99739.47;5550879;32;34667;-70
2022/08/21 11:58:06;;;;;;;5.72;3.95;;;;;;;24.68;76.65;99739.16;5550160;32;32667;-69
2022/08/21 12:01:31;;;;;;;5.95;3.10;;;;;;;25.10;74.83;99732.53;5551214;32;33901;-70
2022/08/21 12:04:45;;;;;;;4.87;3.25;;;;;;;24.81;74.67;99728.81;5549609;32;34007;-70
2022/08/21 12:08:10;;;;;;;6.30;3.58;;;;;;;24.63;76.07;99727.53;5549760;32;32689;-70
2022/08/21 12:11:16;;;;;;;5.40;3.70;;;;;;;24.52;76.54;99723.19;5549841;32;33136;-69
2022/08/21 12:14:19;;;;;;;5.03;3.50;;;;;;;24.33;77.96;99722.16;5550729;32;34018;-69
2022/08/21 12:17:34;;;;;;;6.75;3.80;;;;;;;24.05;79.31;99715.38;5549986;32;33067;-69
2022/08/21 12:20:57;;;;;;;6.55;3.62;;;;;;;24.29;79.18;99716.47;5550153;32;34067;-71
2022/08/21 12:24:03;;;;;;;5.37;3.87;;;;;;;24.02;81.16;99715.91;5550550;32;34546;-70
2022/08/21 12:27:40;;;;;;;6.87;4.53;;;;;;;23.93;82.76;99715.66;5550621;32;34335;-71
2022/08/21 12:30:45;;;;;;;6.35;4.28;;;;;;;23.47;85.18;99717.53;5550381;32;34878;-70
2022/08/21 12:34:01;;;;;;;6.30;4.47;;;;;;;23.59;83.91;99709.13;5550398;32;34098;-70
2022/08/21 12:37:39;;;;;;;6.93;4.60;;;;;;;23.73;85.14;99710.22;5549767;32;33358;-71
2022/08/21 12:40:51;;;;;;;7.07;4.28;;;;;;;23.99;85.65;99702.91;5549637;32;34255;-70
2022/08/21 12:44:07;;;;;;;10.70;4.60;;;;;;;23.98;81.87;99707.53;5549862;32;34330;-70
2022/08/21 12:47:17;;;;;;;7.22;4.03;;;;;;;24.24;81.50;99700.22;5550899;32;33915;-71
2022/08/21 12:50:31;;;;;;;5.65;4.30;;;;;;;23.88;81.74;99704.00;5550349;32;34014;-70
2022/08/21 12:53:45;;;;;;;6.65;3.92;;;;;;;24.13;80.42;99698.56;5550894;32;33917;-71
2022/08/21 12:56:57;;;;;;;6.00;4.05;;;;;;;23.84;81.80;99695.59;5536771;32;34534;-69
2022/08/21 13:00:12;;;;;;;7.53;3.78;;;;;;;24.06;80.35;99696.13;5549688;32;32760;-70
2022/08/21 13:03:16;;;;;;;5.47;3.35;;;;;;;23.94;82.32;99692.91;5549565;32;32947;-69
2022/08/21 13:06:20;;;;;;;6.75;3.17;;;;;;;24.19;80.27;99686.69;5549421;32;32666;-69
2022/08/21 13:09:29;;;;;;;8.02;3.58;;;;;;;23.66;82.66;99685.31;5549491;32;32585;-70
2022/08/21 13:12:33;;;;;;;5.00;3.58;;;;;;;23.55;82.61;99676.38;5550617;32;33889;-69
2022/08/21 13:15:39;;;;;;;4.65;3.55;;;;;;;23.35;83.44;99679.81;5550609;32;34041;-70
2022/08/21 13:18:58;;;;;;;4.43;3.17;;;;;;;23.34;84.41;99674.69;5537354;32;32961;-70
2022/08/21 13:22:02;;;;;;;5.25;3.33;;;;;;;23.34;84.03;99675.50;5550237;32;35182;-69
2022/08/21 13:25:29;;;;;;;7.20;3.83;;;;;;;23.49;83.20;99679.31;5550562;32;34487;-69
2022/08/21 13:28:36;;;;;;;6.15;4.03;;;;;;;23.13;91.94;99679.25;5549919;32;33901;-69
2022/08/21 13:31:42;;;;;;;6.43;4.40;;;;;;;22.19;100.00;99679.31;5550397;32;33957;-71
2022/08/21 13:34:45;;;;;;;7.35;4.30;;;;;;;21.84;100.00;99677.16;5549069;32;32838;-71
2022/08/21 13:37:56;;;;;;;6.18;4.22;;;;;;;21.61;100.00;99682.91;5550141;32;33929;-69
2022/08/21 13:41:04;;;;;;;4.95;4.00;;;;;;;21.43;100.00;99683.28;5550383;32;33953;-71
2022/08/21 13:44:30;;;;;;;11.07;4.87;;;;;;;21.09;100.00;99672.66;5549747;32;33936;-70
2022/08/21 13:47:34;;;;;;;8.95;4.18;;;;;;;20.64;100.00;99674.81;5548890;32;34474;-71
2022/08/21 13:50:38;;;;;;;4.75;3.83;;;;;;;20.42;100.00;99674.00;5550149;32;34341;-71
2022/08/21 13:53:52;;;;;;;7.32;3.58;;;;;;;20.27;100.00;99677.25;5549944;32;33938;-71
2022/08/21 13:56:55;;;;;;;8.52;3.95;;;;;;;20.29;100.00;99678.63;5549081;32;32424;-71
2022/08/21 14:00:24;;;;;;;5.10;3.90;;;;;;;20.25;100.00;99679.38;5549992;32;34601;-71
2022/08/21 14:03:33;;;;;;;6.35;3.85;;;;;;;20.25;100.00;99676.66;5549545;32;33982;-71
2022/08/21 14:06:37;;;;;;;4.40;3.60;;;;;;;20.27;100.00;99678.06;5549011;32;34101;-71
2022/08/21 14:09:43;;;;;;;6.03;3.33;;;;;;;20.32;100.00;99682.75;5549476;32;34624;-70
2022/08/21 14:12:55;;;;;;;5.22;3.50;;;;;;;20.54;100.00;99682.75;5549085;32;34652;-71
2022/08/21 14:16:01;;;;;;;4.68;2.92;;;;;;;20.63;100.00;99675.88;5535881;32;32858;-70
2022/08/21 14:19:03;;;;;;;3.70;2.97;;;;;;;20.86;100.00;99674.81;5549231;32;34624;-72
2022/08/21 14:22:43;;;;;;;3.92;2.50;;;;;;;21.01;100.00;99681.19;5549258;32;35236;-71
2022/08/21 14:25:46;;;;;;;3.25;2.65;;;;;;;21.24;100.00;99672.03;5470577;32;33950;-70
2022/08/21 14:28:49;;;;;;;4.50;2.55;;;;;;;21.39;100.00;99672.19;5470646;32;33814;-70
2022/08/21 14:31:58;;;;;;;3.20;2.50;;;;;;;21.45;100.00;99673.84;5470747;32;34674;-70
2022/08/21 14:35:01;;;;;;;3.72;2.72;;;;;;;21.26;100.00;99669.88;5457836;32;33280;-70
2022/08/21 14:38:19;;;;;;;4.28;2.30;;;;;;;21.32;100.00;99676.97;5457820;32;32895;-70